createdAt,value
2018-06-14T00:01:53.766Z,84.10
2018-06-14T00:04:32.479Z,84.00
2018-06-14T00:07:01.974Z,84.50
2018-06-14T00:09:31.598Z,84.20
2018-06-14T00:12:01.296Z,84.70
2018-06-14T00:14:30.924Z,84.80
2018-06-14T00:17:01.186Z,85.30
2018-06-14T00:19:30.898Z,84.60
2018-06-14T00:22:04.843Z,85.10
2018-06-14T00:24:36.475Z,84.80
2018-06-14T00:27:06.114Z,86.00
2018-06-14T00:29:35.900Z,86.40
2018-06-14T00:32:05.920Z,85.80
2018-06-14T00:37:05.416Z,84.80
2018-06-14T00:39:35.995Z,85.90
2018-06-14T00:42:05.593Z,86.50
2018-06-14T00:44:35.416Z,85.70
2018-06-14T00:47:05.444Z,85.40
2018-06-14T00:49:35.559Z,86.00
2018-06-14T00:52:05.263Z,85.80
2018-06-14T00:54:35.453Z,85.90
2018-06-14T00:57:15.532Z,85.40
2018-06-14T00:59:45.404Z,86.00
2018-06-14T01:02:14.937Z,85.90
2018-06-14T01:04:44.527Z,85.70
2018-06-14T01:07:14.055Z,85.80
2018-06-14T01:09:43.666Z,85.70
2018-06-14T01:12:13.324Z,86.40
2018-06-14T01:14:43.247Z,86.70
2018-06-14T01:17:12.811Z,86.80
2018-06-14T01:19:42.529Z,86.40
2018-06-14T01:22:12.422Z,86.60
2018-06-14T01:24:42.217Z,87.20
2018-06-14T01:27:12.398Z,87.00
2018-06-14T01:29:42.558Z,86.90
2018-06-14T01:32:12.119Z,86.70
2018-06-14T01:34:42.028Z,86.70
2018-06-14T01:37:12.028Z,86.90
2018-06-14T01:39:42.073Z,86.90
2018-06-14T01:42:11.656Z,87.10
2018-06-14T01:44:41.960Z,87.10
2018-06-14T01:47:11.614Z,87.00
2018-06-14T01:49:41.365Z,87.20
2018-06-14T01:52:11.300Z,87.50
2018-06-14T01:54:40.940Z,87.10
2018-06-14T01:57:15.371Z,86.90
2018-06-14T01:59:45.614Z,87.10
2018-06-14T02:02:15.395Z,87.50
2018-06-14T02:04:46.856Z,87.10
2018-06-14T02:07:17.645Z,87.30
2018-06-14T02:09:48.568Z,87.20
2018-06-14T02:12:18.183Z,86.90
2018-06-14T02:14:48.438Z,86.70
2018-06-14T02:17:17.953Z,86.90
2018-06-14T02:19:47.583Z,86.30
2018-06-14T02:22:17.413Z,86.30
2018-06-14T02:27:20.377Z,86.50
2018-06-14T02:29:51.516Z,87.10
2018-06-14T02:32:21.260Z,87.40
2018-06-14T02:34:50.815Z,86.30
2018-06-14T02:37:20.928Z,86.50
2018-06-14T02:39:50.601Z,87.00
2018-06-14T02:42:20.211Z,86.90
2018-06-14T02:44:50.091Z,87.20
2018-06-14T02:47:19.560Z,87.10
2018-06-14T02:49:49.390Z,88.00
2018-06-14T02:52:20.229Z,87.50
2018-06-14T02:57:19.090Z,87.40
2018-06-14T02:59:48.993Z,87.30
2018-06-14T03:02:18.516Z,87.70
2018-06-14T03:04:47.965Z,87.40
2018-06-14T03:07:22.978Z,87.60
2018-06-14T03:09:52.601Z,87.50
2018-06-14T03:12:22.049Z,87.50
2018-06-14T03:14:51.669Z,87.30
2018-06-14T03:17:26.879Z,87.60
2018-06-14T03:19:56.596Z,87.60
2018-06-14T03:22:35.871Z,87.40
2018-06-14T03:25:05.478Z,87.80
2018-06-14T03:27:34.981Z,87.60
2018-06-14T03:30:07.530Z,88.20
2018-06-14T03:32:37.443Z,88.00
2018-06-14T03:35:07.062Z,88.40
2018-06-14T03:37:36.510Z,88.70
2018-06-14T03:40:06.197Z,89.00
2018-06-14T03:42:40.029Z,88.70
2018-06-14T03:45:09.537Z,88.70
2018-06-14T03:47:40.655Z,88.50
2018-06-14T03:50:10.169Z,88.30
2018-06-14T03:52:39.763Z,88.30
2018-06-14T03:55:09.853Z,87.90
2018-06-14T03:57:39.379Z,88.10
2018-06-14T04:00:10.173Z,87.80
2018-06-14T04:02:42.676Z,87.90
2018-06-14T04:05:12.194Z,88.20
2018-06-14T04:07:43.262Z,88.10
2018-06-14T04:10:13.137Z,87.90
2018-06-14T04:14:01.923Z,87.60
2018-06-14T04:16:36.020Z,87.70
2018-06-14T04:19:05.742Z,88.00
2018-06-14T04:21:35.414Z,88.20
2018-06-14T04:27:38.188Z,88.30
2018-06-14T04:30:07.804Z,88.30
2018-06-14T04:32:37.144Z,87.70
2018-06-14T04:35:07.103Z,86.80
2018-06-14T04:37:36.492Z,87.20
2018-06-14T04:40:06.184Z,88.00
2018-06-14T04:42:39.876Z,88.20
2018-06-14T04:45:09.478Z,88.00
2018-06-14T04:47:39.469Z,87.70
2018-06-14T04:50:08.954Z,87.40
2018-06-14T04:52:38.881Z,87.20
2018-06-14T04:55:08.842Z,87.10
2018-06-14T04:57:38.374Z,87.80
2018-06-14T05:00:09.742Z,86.90
2018-06-14T05:02:43.641Z,86.70
2018-06-14T05:05:13.401Z,86.30
2018-06-14T05:07:42.894Z,86.50
2018-06-14T05:10:12.491Z,87.00
2018-06-14T05:12:41.998Z,86.20
2018-06-14T05:15:11.622Z,85.90
2018-06-14T05:17:41.071Z,85.90
2018-06-14T05:20:11.036Z,86.10
2018-06-14T05:22:40.654Z,86.00
2018-06-14T05:25:10.749Z,86.10
2018-06-14T05:27:40.776Z,85.50
2018-06-14T05:30:11.570Z,85.50
2018-06-14T05:32:43.181Z,85.80
2018-06-14T05:35:12.902Z,85.50
2018-06-14T05:40:12.612Z,85.20
2018-06-14T05:42:42.715Z,85.50
2018-06-14T05:45:12.449Z,84.80
2018-06-14T05:47:46.072Z,84.70
2018-06-14T05:50:15.498Z,85.10
2018-06-14T05:52:46.077Z,85.30
2018-06-14T05:55:15.685Z,84.80
2018-06-14T05:57:45.071Z,86.00
2018-06-14T06:00:17.256Z,85.00
2018-06-14T06:02:53.759Z,84.30
2018-06-14T06:05:23.340Z,84.10
2018-06-14T06:07:53.248Z,84.30
2018-06-14T06:10:22.880Z,84.00
2018-06-14T06:12:52.561Z,83.30
2018-06-14T06:15:22.219Z,83.50
2018-06-14T06:17:52.014Z,83.50
2018-06-14T06:20:21.636Z,83.00
2018-06-14T06:22:51.327Z,83.50
2018-06-14T06:25:21.407Z,82.10
2018-06-14T06:27:51.002Z,81.90
2018-06-14T06:30:20.389Z,81.60
2018-06-14T06:32:50.391Z,81.80
2018-06-14T06:35:25.011Z,80.60
2018-06-14T06:37:54.853Z,79.80
2018-06-14T06:40:24.637Z,79.90
2018-06-14T06:42:55.247Z,80.50
2018-06-14T06:45:24.745Z,80.70
2018-06-14T06:47:54.685Z,80.50
2018-06-14T06:50:24.499Z,79.60
2018-06-14T06:52:54.152Z,79.60
2018-06-14T06:55:24.131Z,78.50
2018-06-14T06:57:54.291Z,78.00
2018-06-14T07:00:24.447Z,77.70
2018-06-14T07:02:56.001Z,78.00
2018-06-14T07:05:26.196Z,77.80
2018-06-14T07:07:56.614Z,77.20
2018-06-14T07:10:27.201Z,77.50
2018-06-14T07:12:57.372Z,75.90
2018-06-14T07:15:27.254Z,75.10
2018-06-14T07:17:58.270Z,75.00
2018-06-14T07:20:28.603Z,74.60
2018-06-14T07:22:58.655Z,74.30
2018-06-14T07:25:30.732Z,75.10
2018-06-14T07:28:01.783Z,74.70
2018-06-14T07:30:32.033Z,73.50
2018-06-14T07:33:02.360Z,73.00
2018-06-14T07:35:32.563Z,73.00
2018-06-14T07:38:02.527Z,73.70
2018-06-14T07:40:31.996Z,73.40
2018-06-14T07:43:01.880Z,72.70
2018-06-14T07:45:34.757Z,72.80
2018-06-14T07:48:06.302Z,72.10
2018-06-14T07:50:38.694Z,70.70
2018-06-14T07:53:10.929Z,72.10
2018-06-14T07:55:40.498Z,72.70
2018-06-14T07:58:12.175Z,70.20
2018-06-14T08:00:44.888Z,68.70
2018-06-14T08:03:15.360Z,69.20
2018-06-14T08:05:45.467Z,64.50
2018-06-14T08:08:16.808Z,66.50
2018-06-14T08:10:46.278Z,66.20
2018-06-14T08:13:17.127Z,66.00
2018-06-14T08:15:47.325Z,63.80
2018-06-14T08:18:17.601Z,62.40
2018-06-14T08:20:47.650Z,58.40
2018-06-14T08:23:25.807Z,60.00
2018-06-14T08:25:55.776Z,55.00
2018-06-14T08:28:25.435Z,59.50
2018-06-14T08:30:55.079Z,60.00
2018-06-14T08:33:24.966Z,59.10
2018-06-14T08:35:54.506Z,59.40
2018-06-14T08:38:24.822Z,61.70
2018-06-14T08:40:58.555Z,54.80
2018-06-14T08:43:32.941Z,53.10
2018-06-14T08:46:03.715Z,56.20
2018-06-14T08:48:33.390Z,55.80
2018-06-14T08:51:03.023Z,56.00
2018-06-14T08:53:33.035Z,53.40
2018-06-14T08:56:03.016Z,54.10
2018-06-14T08:58:33.053Z,52.60
2018-06-14T09:01:03.039Z,53.80
2018-06-14T09:06:07.227Z,56.50
2018-06-14T09:08:41.498Z,55.70
2018-06-14T09:11:18.902Z,53.90
2018-06-14T09:13:49.096Z,54.70
2018-06-14T09:16:18.582Z,54.60
2018-06-14T09:18:52.092Z,55.90
2018-06-14T09:21:22.131Z,59.20
2018-06-14T09:23:52.653Z,58.70
2018-06-14T09:26:22.214Z,57.70
2018-06-14T09:28:57.138Z,55.70
2018-06-14T09:31:27.604Z,57.50
2018-06-14T09:33:57.367Z,56.30
2018-06-14T09:36:39.440Z,55.90
2018-06-14T09:39:10.298Z,54.70
2018-06-14T09:41:46.041Z,57.00
2018-06-14T09:44:17.739Z,56.60
2018-06-14T09:46:54.093Z,52.40
2018-06-14T09:49:26.441Z,55.70
2018-06-14T09:51:56.382Z,53.40
2018-06-14T09:54:30.050Z,53.30
2018-06-14T09:57:02.157Z,52.90
2018-06-14T09:59:31.915Z,56.40
2018-06-14T10:02:01.656Z,56.10
2018-06-14T10:04:31.217Z,53.70
2018-06-14T10:07:10.928Z,54.30
2018-06-14T10:09:40.476Z,53.80
2018-06-14T10:12:11.242Z,54.60
2018-06-14T10:14:41.601Z,56.20
2018-06-14T10:17:11.128Z,53.90
2018-06-14T10:19:45.055Z,55.10
2018-06-14T10:22:14.600Z,54.80
2018-06-14T10:24:44.247Z,53.90
2018-06-14T10:27:14.172Z,54.70
2018-06-14T10:29:43.875Z,56.30
2018-06-14T10:32:13.508Z,54.60
2018-06-14T10:34:44.096Z,54.30
2018-06-14T10:37:13.688Z,55.90
2018-06-14T10:39:47.686Z,53.40
2018-06-14T10:43:19.866Z,56.10
2018-06-14T10:45:49.989Z,57.00
2018-06-14T10:48:19.872Z,53.90
2018-06-14T10:50:50.191Z,52.80
2018-06-14T10:53:19.776Z,53.80
2018-06-14T10:55:49.641Z,55.20
2018-06-14T10:58:19.327Z,53.70
2018-06-14T11:00:49.345Z,56.80
2018-06-14T11:03:19.313Z,54.20
2018-06-14T11:08:17.910Z,54.40
2018-06-14T11:10:47.877Z,54.70
2018-06-14T11:13:17.793Z,54.80
2018-06-14T11:15:47.348Z,56.30
2018-06-14T11:18:17.335Z,56.90
2018-06-14T11:20:46.854Z,55.00
2018-06-14T11:23:16.315Z,54.20
2018-06-14T11:25:46.678Z,52.70
2018-06-14T11:28:16.159Z,53.10
2018-06-14T11:30:45.805Z,56.20
2018-06-14T11:33:15.269Z,56.10
2018-06-14T11:35:46.651Z,54.70
2018-06-14T11:38:16.505Z,53.50
2018-06-14T11:40:46.647Z,53.70
2018-06-14T11:43:16.532Z,52.90
2018-06-14T11:45:46.274Z,52.40
2018-06-14T11:48:17.205Z,50.70
2018-06-14T11:50:46.757Z,53.50
2018-06-14T11:53:16.595Z,55.30
2018-06-14T11:55:46.165Z,53.90
2018-06-14T11:58:15.738Z,54.00
2018-06-14T12:00:45.178Z,51.60
2018-06-14T12:03:17.073Z,53.40
2018-06-14T12:05:46.554Z,55.30
2018-06-14T12:08:18.643Z,52.00
2018-06-14T12:10:50.887Z,51.00
2018-06-14T12:13:24.230Z,51.40
2018-06-14T12:15:58.047Z,51.60
2018-06-14T12:18:27.487Z,52.50
2018-06-14T12:21:11.250Z,51.80
2018-06-14T12:24:23.490Z,48.00
2018-06-14T12:29:46.975Z,49.20
2018-06-14T12:32:17.239Z,50.30
2018-06-14T12:34:47.893Z,51.20
2018-06-14T12:39:49.885Z,49.40
2018-06-14T12:42:25.002Z,48.70
2018-06-14T12:44:54.606Z,49.60
2018-06-14T12:47:24.126Z,49.20
2018-06-14T12:49:55.618Z,51.00
2018-06-14T12:52:25.261Z,49.40
2018-06-14T12:54:55.261Z,51.60
2018-06-14T12:57:26.545Z,51.60
2018-06-14T12:59:57.383Z,52.80
2018-06-14T13:02:27.076Z,53.50
2018-06-14T13:04:56.941Z,54.70
2018-06-14T13:07:28.695Z,50.40
2018-06-14T13:09:58.854Z,50.20
2018-06-14T13:12:28.462Z,51.10
2018-06-14T13:14:58.688Z,55.30
2018-06-14T13:17:29.219Z,52.80
2018-06-14T13:19:58.942Z,51.80
2018-06-14T13:22:30.506Z,49.50
2018-06-14T13:25:01.383Z,51.40
2018-06-14T13:27:30.758Z,50.90
2018-06-14T13:30:00.116Z,54.60
2018-06-14T13:32:29.845Z,52.70
2018-06-14T13:35:00.364Z,52.70
2018-06-14T13:37:30.364Z,52.80
2018-06-14T13:40:01.389Z,48.90
2018-06-14T13:42:37.504Z,48.40
2018-06-14T13:45:07.222Z,50.00
2018-06-14T13:50:17.819Z,48.80
2018-06-14T13:55:36.295Z,49.40
2018-06-14T13:58:05.823Z,51.10
2018-06-14T14:00:35.335Z,48.60
2018-06-14T14:03:09.808Z,48.70
2018-06-14T14:08:13.207Z,51.30
2018-06-14T14:10:42.685Z,51.70
2018-06-14T14:13:12.760Z,48.60
2018-06-14T14:15:42.340Z,52.30
2018-06-14T14:18:11.982Z,53.00
2018-06-14T14:20:42.364Z,52.40
2018-06-14T14:23:11.943Z,51.20
2018-06-14T14:25:41.442Z,48.20
2018-06-14T14:28:15.478Z,49.00
2018-06-14T14:30:49.828Z,48.30
2018-06-14T14:33:20.209Z,50.30
2018-06-14T14:35:50.825Z,49.20
2018-06-14T14:38:20.405Z,49.90
2018-06-14T14:40:56.167Z,49.10
2018-06-14T14:43:26.350Z,50.00
2018-06-14T14:46:13.389Z,51.10
2018-06-14T14:48:46.111Z,51.70
2018-06-14T14:51:16.497Z,52.80
2018-06-14T14:53:49.159Z,51.80
2018-06-14T14:56:21.307Z,52.00
2018-06-14T14:59:01.088Z,50.10
2018-06-14T15:01:36.868Z,50.60
2018-06-14T15:04:09.526Z,51.80
2018-06-14T15:06:42.713Z,52.50
2018-06-14T15:09:13.354Z,51.80
2018-06-14T15:11:42.821Z,52.40
2018-06-14T15:14:16.392Z,49.60
2018-06-14T15:19:20.806Z,50.00
2018-06-14T15:21:51.685Z,50.70
2018-06-14T15:24:23.445Z,53.10
2018-06-14T15:29:27.665Z,50.30
2018-06-14T15:34:26.365Z,51.70
2018-06-14T15:36:56.861Z,51.60
2018-06-14T15:39:26.561Z,51.40
2018-06-14T15:41:56.053Z,51.40
2018-06-14T15:44:37.648Z,53.50
2018-06-14T15:47:07.142Z,54.90
2018-06-14T15:49:37.207Z,56.00
2018-06-14T15:52:11.246Z,54.60
2018-06-14T15:59:40.553Z,58.70
2018-06-14T16:02:10.467Z,59.10
2018-06-14T16:07:09.911Z,60.10
2018-06-14T16:09:39.443Z,61.40
2018-06-14T16:12:10.681Z,62.00
2018-06-14T16:14:45.473Z,66.00
2018-06-14T16:19:56.101Z,71.00
2018-06-14T16:22:25.969Z,76.60
2018-06-14T16:24:56.683Z,78.50
2018-06-14T16:27:26.093Z,80.20
2018-06-14T16:29:56.256Z,80.60
2018-06-14T16:32:26.179Z,83.60
2018-06-14T16:34:55.642Z,86.10
2018-06-14T16:37:25.218Z,86.90
2018-06-14T16:39:56.769Z,87.40
2018-06-14T16:42:26.355Z,88.20
2018-06-14T16:44:55.811Z,89.20
2018-06-14T16:47:26.481Z,90.20
2018-06-14T16:49:55.890Z,90.80
2018-06-14T16:52:25.577Z,90.70
2018-06-14T16:54:55.475Z,90.80
2018-06-14T16:57:24.944Z,91.10
2018-06-14T16:59:54.379Z,91.20
2018-06-14T17:02:24.268Z,91.60
2018-06-14T17:04:53.790Z,91.90
2018-06-14T17:07:23.260Z,91.80
2018-06-14T17:09:53.726Z,92.10
2018-06-14T17:12:23.581Z,92.30
2018-06-14T17:14:53.630Z,92.20
2018-06-14T17:19:53.639Z,92.40
2018-06-14T17:22:27.568Z,92.50
2018-06-14T17:24:58.563Z,92.50
2018-06-14T17:27:28.301Z,92.40
2018-06-14T17:29:58.517Z,92.50
2018-06-14T17:32:29.625Z,92.70
2018-06-14T17:37:30.442Z,93.00
2018-06-14T17:40:00.174Z,93.00
2018-06-14T17:42:29.644Z,92.90
2018-06-14T17:44:59.502Z,92.90
2018-06-14T17:47:29.753Z,92.90
2018-06-14T17:49:59.256Z,93.00
2018-06-14T17:53:42.128Z,93.30
2018-06-14T17:56:20.238Z,93.30
2018-06-14T17:58:51.831Z,93.60
2018-06-14T18:03:57.372Z,93.60
2018-06-14T18:06:28.339Z,93.60
2018-06-14T18:09:03.330Z,93.90
2018-06-14T18:12:04.216Z,93.80
2018-06-14T18:14:34.484Z,94.00
2018-06-14T18:17:04.276Z,94.10
2018-06-14T18:19:36.172Z,94.50
2018-06-14T18:22:06.760Z,94.90
2018-06-14T18:24:36.573Z,95.20
2018-06-14T18:27:06.116Z,95.20
2018-06-14T18:29:35.658Z,95.30
2018-06-14T18:34:34.432Z,95.00
2018-06-14T18:37:04.392Z,94.90
2018-06-14T18:39:34.608Z,94.90
2018-06-14T18:42:04.553Z,94.90
2018-06-14T18:44:40.191Z,95.00
2018-06-14T18:47:15.632Z,94.70
2018-06-14T18:49:45.129Z,94.80
2018-06-14T18:52:14.836Z,94.80
2018-06-14T18:54:45.096Z,95.20
2018-06-14T18:57:14.977Z,95.30
2018-06-14T18:59:44.439Z,95.20
2018-06-14T19:02:13.992Z,95.20
2018-06-14T19:04:43.790Z,95.50
2018-06-14T19:07:14.323Z,95.20
2018-06-14T19:09:44.316Z,95.00
2018-06-14T19:12:14.410Z,95.30
2018-06-14T19:14:43.934Z,95.50
2018-06-14T19:17:13.722Z,95.60
2018-06-14T19:19:44.690Z,95.60
2018-06-14T19:22:14.188Z,95.70
2018-06-14T19:24:45.261Z,95.70
2018-06-14T19:27:16.668Z,95.60
2018-06-14T19:29:46.710Z,95.70
2018-06-14T19:32:16.178Z,95.50
2018-06-14T19:34:46.757Z,95.60
2018-06-14T19:37:20.480Z,95.60
2018-06-14T19:39:51.096Z,95.60
2018-06-14T19:42:20.903Z,95.40
2018-06-14T19:44:51.140Z,95.50
2018-06-14T19:47:20.841Z,95.40
2018-06-14T19:49:50.577Z,95.50
2018-06-14T19:52:20.012Z,95.10
2018-06-14T19:54:49.876Z,95.20
2018-06-14T19:57:19.592Z,95.50
2018-06-14T19:59:49.125Z,95.30
2018-06-14T20:02:18.709Z,95.30
2018-06-14T20:04:49.231Z,95.20
2018-06-14T20:07:18.665Z,95.30
2018-06-14T20:09:48.068Z,95.20
2018-06-14T20:12:17.746Z,95.20
2018-06-14T20:14:47.146Z,95.20
2018-06-14T20:17:18.517Z,95.20
2018-06-14T20:19:48.821Z,95.10
2018-06-14T20:22:18.396Z,95.00
2018-06-14T20:24:47.913Z,94.80
2018-06-14T20:27:17.715Z,94.60
2018-06-14T20:29:47.824Z,94.50
2018-06-14T20:32:17.488Z,94.50
2018-06-14T20:34:51.769Z,94.50
2018-06-14T20:37:21.626Z,94.40
2018-06-14T20:42:26.915Z,94.10
2018-06-14T20:47:25.286Z,93.80
2018-06-14T20:49:54.757Z,93.90
2018-06-14T20:52:24.485Z,93.80
2018-06-14T20:54:54.014Z,93.80
2018-06-14T20:57:23.603Z,93.80
2018-06-14T20:59:53.312Z,93.80
2018-06-14T21:02:23.181Z,93.90
2018-06-14T21:04:53.654Z,93.90
2018-06-14T21:07:23.567Z,93.90
2018-06-14T21:12:41.477Z,93.90
2018-06-14T21:15:11.047Z,93.90
2018-06-14T21:17:40.560Z,93.90
2018-06-14T21:20:10.432Z,93.90
2018-06-14T21:22:42.326Z,94.00
2018-06-14T21:25:11.802Z,93.80
2018-06-14T21:27:41.513Z,93.90
2018-06-14T21:30:11.079Z,93.90
2018-06-14T21:32:40.812Z,93.90
2018-06-14T21:35:14.954Z,93.90
2018-06-14T21:37:44.368Z,93.80
2018-06-14T21:40:13.951Z,93.90
2018-06-14T21:42:44.294Z,93.80
2018-06-14T21:45:13.945Z,93.80
2018-06-14T21:47:43.483Z,93.70
2018-06-14T21:50:12.990Z,93.60
2018-06-14T21:55:21.356Z,93.40
2018-06-14T21:57:51.019Z,93.60
2018-06-14T22:00:22.279Z,93.50
2018-06-14T22:02:57.425Z,93.70
2018-06-14T22:05:30.816Z,93.60
2018-06-14T22:08:05.315Z,93.50
2018-06-14T22:10:40.327Z,93.40
2018-06-14T22:13:16.786Z,93.40
2018-06-14T22:15:49.913Z,93.40
2018-06-14T22:18:27.671Z,93.60
2018-06-14T22:20:58.042Z,93.50
2018-06-14T22:23:27.851Z,93.50
2018-06-14T22:25:57.385Z,93.50
2018-06-14T22:28:26.779Z,93.50
2018-06-14T22:30:56.305Z,93.50
2018-06-14T22:33:36.793Z,93.60
2018-06-14T22:36:06.715Z,93.80
2018-06-14T22:38:40.453Z,94.10
2018-06-14T22:41:10.085Z,94.20
2018-06-14T22:43:39.840Z,94.20
2018-06-14T22:46:09.520Z,94.10
2018-06-14T22:48:49.727Z,94.00
2018-06-14T22:51:22.154Z,93.90
2018-06-14T22:53:51.691Z,93.80
2018-06-14T22:56:22.704Z,93.90
2018-06-14T22:59:14.053Z,93.80
2018-06-14T23:01:54.656Z,93.70
2018-06-14T23:07:09.959Z,93.60
2018-06-14T23:10:16.606Z,93.30
2018-06-14T23:12:49.189Z,93.40
2018-06-14T23:15:23.478Z,93.40
2018-06-14T23:17:53.630Z,93.60
2018-06-14T23:20:24.295Z,93.80
2018-06-14T23:22:55.211Z,93.90
2018-06-14T23:25:26.852Z,93.90
2018-06-14T23:31:09.987Z,93.90
2018-06-14T23:33:48.879Z,94.10
2018-06-14T23:36:19.885Z,94.20
2018-06-14T23:38:49.641Z,94.30
2018-06-14T23:41:19.097Z,94.30
2018-06-14T23:43:48.683Z,94.50
2018-06-14T23:46:19.753Z,94.60
2018-06-14T23:48:50.153Z,94.60
2018-06-14T23:51:20.576Z,94.60
2018-06-14T23:53:50.075Z,94.70
2018-06-14T23:56:19.469Z,94.60
2018-06-14T23:58:50.567Z,94.50
